createdAt,value
2019-05-10T04:43:00.207Z,8.00
2019-05-10T04:45:29.891Z,10.80
2019-05-10T04:47:59.400Z,10.50
2019-05-10T04:50:28.649Z,10.20
2019-05-10T04:52:57.965Z,10.10
2019-05-10T04:55:27.396Z,10.20
2019-05-10T04:57:56.624Z,10.50
2019-05-10T05:00:25.968Z,10.30
2019-05-10T05:02:57.965Z,10.10
2019-05-10T05:05:27.204Z,10.10
2019-05-10T05:07:56.483Z,10.00
2019-05-10T05:10:25.737Z,10.00
2019-05-10T05:12:54.922Z,10.00
2019-05-10T05:15:24.273Z,10.00
2019-05-10T05:17:53.525Z,10.10
2019-05-10T05:20:22.817Z,10.20
2019-05-10T05:22:52.008Z,10.10
2019-05-10T05:25:22.146Z,10.20
2019-05-10T05:28:06.664Z,10.20
2019-05-10T05:30:23.157Z,10.20
2019-05-10T05:32:52.483Z,10.10
2019-05-10T05:35:21.835Z,10.10
2019-05-10T05:37:53.780Z,10.10
2019-05-10T05:40:22.997Z,10.10
2019-05-10T05:42:52.367Z,10.20
2019-05-10T05:45:21.716Z,10.30
2019-05-10T05:47:51.148Z,10.50
2019-05-10T05:50:20.375Z,10.70
2019-05-10T05:52:49.637Z,11.10
2019-05-10T05:55:22.776Z,12.20
2019-05-10T05:57:50.646Z,13.90
2019-05-10T06:00:19.834Z,15.60
2019-05-10T06:02:49.120Z,17.00
2019-05-10T06:05:32.908Z,17.60
2019-05-10T06:07:52.087Z,18.30
2019-05-10T06:10:20.219Z,19.60
2019-05-10T06:12:50.683Z,19.60
2019-05-10T06:15:28.773Z,19.60
2019-05-10T06:17:57.054Z,18.30
2019-05-10T06:20:25.006Z,17.10
2019-05-10T06:23:06.257Z,16.00
2019-05-10T06:25:38.811Z,14.90
2019-05-10T06:27:58.614Z,14.10
2019-05-10T06:30:28.071Z,13.70
2019-05-10T06:33:00.992Z,13.30
2019-05-10T06:35:28.259Z,12.90
2019-05-10T06:37:57.435Z,12.50
2019-05-10T06:40:35.746Z,12.30
2019-05-10T06:42:57.695Z,12.10
2019-05-10T06:45:26.906Z,12.10
2019-05-10T06:47:56.233Z,12.00
2019-05-10T06:50:30.148Z,11.90
2019-05-10T06:53:00.768Z,11.90
2019-05-10T06:55:27.565Z,11.80
2019-05-10T06:58:00.502Z,11.80
2019-05-10T07:00:28.115Z,11.70
2019-05-10T07:02:57.364Z,11.80
2019-05-10T07:05:27.236Z,11.70
2019-05-10T07:08:00.505Z,11.80
2019-05-10T07:10:27.435Z,11.80
2019-05-10T07:13:02.963Z,11.80
2019-05-10T07:15:27.563Z,11.80
2019-05-10T07:17:56.719Z,11.80
2019-05-10T07:20:29.509Z,11.50
2019-05-10T07:23:00.033Z,11.20
2019-05-10T07:25:31.165Z,11.00
2019-05-10T07:28:00.457Z,10.70
2019-05-10T07:30:34.975Z,10.60
2019-05-10T07:33:04.594Z,10.40
2019-05-10T07:35:38.633Z,10.40
2019-05-10T07:38:07.919Z,10.30
2019-05-10T07:40:37.295Z,10.20
2019-05-10T07:43:06.502Z,10.10
2019-05-10T07:45:35.950Z,10.00
2019-05-10T07:48:08.422Z,10.10
2019-05-10T07:50:36.532Z,10.10
2019-05-10T07:53:05.779Z,10.00
2019-05-10T07:55:34.951Z,10.00
2019-05-10T07:58:04.932Z,10.00
2019-05-10T08:00:37.995Z,9.90
2019-05-10T08:03:15.206Z,9.90
2019-05-10T08:05:39.114Z,9.80
2019-05-10T08:08:09.547Z,9.80
2019-05-10T08:10:39.923Z,9.80
2019-05-10T08:13:09.142Z,9.80
2019-05-10T08:15:38.614Z,9.70
2019-05-10T08:18:09.878Z,9.90
2019-05-10T08:20:49.646Z,9.90
2019-05-10T08:23:10.135Z,9.70
2019-05-10T08:25:46.695Z,9.80
2019-05-10T08:28:12.698Z,9.90
2019-05-10T08:30:51.722Z,10.00
2019-05-10T08:33:15.171Z,10.10
2019-05-10T08:35:46.445Z,10.40
2019-05-10T08:38:15.389Z,10.60
2019-05-10T08:40:44.624Z,11.00
2019-05-10T08:43:16.621Z,11.40
2019-05-10T08:45:49.216Z,11.80
2019-05-10T08:48:16.421Z,12.30
2019-05-10T08:50:55.202Z,12.60
2019-05-10T08:53:16.884Z,13.80
2019-05-10T08:55:52.286Z,15.90
2019-05-10T09:01:19.030Z,19.10
2019-05-10T09:03:38.475Z,18.80
2019-05-10T09:06:11.967Z,18.10
2019-05-10T09:08:38.923Z,17.50
2019-05-10T09:11:08.120Z,17.70
2019-05-10T09:13:41.131Z,17.80
2019-05-10T09:16:08.316Z,18.60
2019-05-10T09:18:46.775Z,20.10
2019-05-10T09:21:14.323Z,20.80
2019-05-10T09:23:43.318Z,21.80
2019-05-10T09:26:16.394Z,22.20
2019-05-10T09:28:47.497Z,22.20
2019-05-10T09:31:20.856Z,22.10
2019-05-10T09:33:49.534Z,21.50
2019-05-10T09:36:23.135Z,20.60
2019-05-10T09:38:48.912Z,20.80
2019-05-10T09:41:18.463Z,21.70
2019-05-10T09:43:49.143Z,22.10
2019-05-10T09:46:19.187Z,23.00
2019-05-10T09:48:53.557Z,22.80
2019-05-10T09:51:25.493Z,21.90
2019-05-10T09:53:51.642Z,21.10
2019-05-10T09:56:20.933Z,20.60
2019-05-10T09:58:50.101Z,19.50
2019-05-10T10:01:21.980Z,18.80
2019-05-10T10:03:51.182Z,18.50
2019-05-10T10:06:29.553Z,17.90
2019-05-10T10:08:57.740Z,17.90
2019-05-10T10:11:28.184Z,17.90
2019-05-10T10:13:59.990Z,17.50
2019-05-10T10:16:28.483Z,17.10
2019-05-10T10:18:58.227Z,16.40
2019-05-10T10:21:34.909Z,15.90
2019-05-10T10:24:12.724Z,15.10
2019-05-10T10:26:34.332Z,14.60
2019-05-10T10:29:03.568Z,13.80
2019-05-10T10:31:39.146Z,13.20
2019-05-10T10:34:07.218Z,13.00
2019-05-10T10:36:40.113Z,13.00
2019-05-10T10:39:07.914Z,13.10
2019-05-10T10:41:37.122Z,13.10
2019-05-10T10:44:08.419Z,13.00
2019-05-10T10:46:37.223Z,12.90
2019-05-10T10:49:06.595Z,12.90
2019-05-10T10:51:37.780Z,12.90
2019-05-10T10:54:07.366Z,12.90
2019-05-10T10:56:42.239Z,13.10
2019-05-10T10:59:12.940Z,13.40
2019-05-10T11:01:49.967Z,13.80
2019-05-10T11:04:16.503Z,14.00
2019-05-10T11:06:45.804Z,14.30
2019-05-10T11:09:15.132Z,14.40
2019-05-10T11:11:44.956Z,14.30
2019-05-10T11:14:14.709Z,14.30
2019-05-10T11:16:46.760Z,14.30
2019-05-10T11:19:15.837Z,14.40
2019-05-10T11:21:45.389Z,14.70
2019-05-10T11:24:18.247Z,14.70
2019-05-10T11:26:45.694Z,15.10
2019-05-10T11:29:25.513Z,15.50
2019-05-10T11:31:50.207Z,15.60
2019-05-10T11:34:18.635Z,15.60
2019-05-10T11:36:48.377Z,15.70
2019-05-10T11:39:26.040Z,15.60
2019-05-10T11:41:52.798Z,15.70
2019-05-10T11:44:22.021Z,15.70
2019-05-10T11:46:51.614Z,15.40
2019-05-10T11:49:20.957Z,15.40
2019-05-10T11:51:54.817Z,15.10
2019-05-10T11:54:21.687Z,15.00
2019-05-10T11:56:52.250Z,14.50
2019-05-10T11:59:27.452Z,14.30
2019-05-10T12:01:58.031Z,14.10
2019-05-10T12:04:36.230Z,13.90
2019-05-10T12:06:55.672Z,13.80
2019-05-10T12:09:27.995Z,13.60
2019-05-10T12:11:57.492Z,13.40
2019-05-10T12:14:26.815Z,13.50
2019-05-10T12:16:56.136Z,13.40
2019-05-10T12:19:25.515Z,13.40
2019-05-10T12:21:55.990Z,13.50
2019-05-10T12:24:38.769Z,13.40
2019-05-10T12:29:27.915Z,13.70
2019-05-10T12:31:57.292Z,14.00
2019-05-10T12:34:27.675Z,14.20
2019-05-10T12:36:57.536Z,14.30
2019-05-10T12:39:28.094Z,14.30
2019-05-10T12:41:57.492Z,14.50
2019-05-10T12:44:26.836Z,14.30
2019-05-10T12:46:56.235Z,14.30
2019-05-10T12:49:25.524Z,14.20
2019-05-10T12:51:54.858Z,14.30
2019-05-10T12:54:31.505Z,14.50
2019-05-10T12:57:02.804Z,14.80
2019-05-10T12:59:34.868Z,14.60
2019-05-10T13:02:04.551Z,14.70
2019-05-10T13:04:40.527Z,14.70
2019-05-10T13:07:05.155Z,14.80
2019-05-10T13:09:40.385Z,14.60
2019-05-10T13:12:06.419Z,14.50
2019-05-10T13:14:40.215Z,14.30
2019-05-10T13:17:09.929Z,14.00
2019-05-10T13:19:40.112Z,13.90
2019-05-10T13:22:09.645Z,13.80
2019-05-10T13:24:39.039Z,13.80
2019-05-10T13:27:08.346Z,13.80
2019-05-10T13:29:40.641Z,13.60
2019-05-10T13:32:08.671Z,13.60
2019-05-10T13:34:37.893Z,13.50
2019-05-10T13:37:07.101Z,13.50
2019-05-10T13:39:36.410Z,13.50
2019-05-10T13:42:09.509Z,13.60
2019-05-10T13:44:37.159Z,13.60
2019-05-10T13:47:08.010Z,13.80
2019-05-10T13:49:37.284Z,14.00
2019-05-10T13:52:07.676Z,14.20
2019-05-10T13:54:37.983Z,14.50
2019-05-10T13:57:07.847Z,14.70
2019-05-10T13:59:37.291Z,15.00
2019-05-10T14:02:06.988Z,15.70
2019-05-10T14:04:38.615Z,16.50
2019-05-10T14:07:10.261Z,16.80
2019-05-10T14:09:39.732Z,16.70
2019-05-10T14:12:09.215Z,16.50
2019-05-10T14:14:38.519Z,16.20
2019-05-10T14:17:08.030Z,16.10
2019-05-10T14:19:37.318Z,16.50
2019-05-10T14:22:06.676Z,16.80
2019-05-10T14:24:36.125Z,16.90
2019-05-10T14:27:05.651Z,17.10
2019-05-10T14:29:36.929Z,17.10
2019-05-10T14:32:06.664Z,17.00
2019-05-10T14:34:37.911Z,17.00
2019-05-10T14:37:06.992Z,17.10
2019-05-10T14:39:36.805Z,17.10
2019-05-10T14:42:09.305Z,17.10
2019-05-10T14:44:38.613Z,17.20
2019-05-10T14:47:10.941Z,17.10
2019-05-10T14:49:42.127Z,17.20
2019-05-10T14:52:10.542Z,17.40
2019-05-10T14:54:43.536Z,17.60
2019-05-10T14:57:11.307Z,17.40
2019-05-10T14:59:41.084Z,17.40
2019-05-10T15:02:10.390Z,17.50
2019-05-10T15:04:45.027Z,17.60
2019-05-10T15:07:14.372Z,17.30
2019-05-10T15:09:41.795Z,17.10
2019-05-10T15:12:16.336Z,17.00
2019-05-10T15:14:42.609Z,17.00
2019-05-10T15:17:12.131Z,17.10
2019-05-10T15:19:41.441Z,17.40
2019-05-10T15:22:10.978Z,17.30
2019-05-10T15:24:40.460Z,17.20
2019-05-10T15:27:09.746Z,17.30
2019-05-10T15:29:39.259Z,17.10
2019-05-10T15:32:08.795Z,16.90
2019-05-10T15:34:38.205Z,16.60
2019-05-10T15:37:10.634Z,16.20
2019-05-10T15:39:39.216Z,16.00
2019-05-10T15:42:08.590Z,15.80
2019-05-10T15:44:37.931Z,15.70
2019-05-10T15:47:14.414Z,15.70
2019-05-10T15:49:38.615Z,15.60
2019-05-10T15:52:17.570Z,15.60
2019-05-10T15:54:44.630Z,15.60
2019-05-10T15:57:14.519Z,15.60
2019-05-10T15:59:41.562Z,15.50
2019-05-10T16:02:11.476Z,15.50
2019-05-10T16:04:40.965Z,15.50
2019-05-10T16:07:14.591Z,15.40
2019-05-10T16:09:41.318Z,15.30
2019-05-10T16:12:10.914Z,15.10
2019-05-10T16:14:41.221Z,15.10
2019-05-10T16:17:17.614Z,15.00
2019-05-10T16:19:42.295Z,15.00
2019-05-10T16:22:11.845Z,14.90
2019-05-10T16:24:41.188Z,14.80
2019-05-10T16:27:12.316Z,14.80
2019-05-10T16:29:41.669Z,14.70
2019-05-10T16:32:10.984Z,14.60
2019-05-10T16:34:40.369Z,14.50
2019-05-10T16:37:09.767Z,14.50
2019-05-10T16:39:39.617Z,14.80
2019-05-10T16:42:08.943Z,14.90
2019-05-10T16:44:38.286Z,14.90
2019-05-10T16:47:07.638Z,14.80
2019-05-10T16:49:37.168Z,14.70
2019-05-10T16:52:06.463Z,14.60
2019-05-10T16:54:35.859Z,14.50
2019-05-10T16:57:05.295Z,14.50
2019-05-10T16:59:35.334Z,14.50
2019-05-10T17:02:06.633Z,14.40
2019-05-10T17:04:37.468Z,14.40
2019-05-10T17:07:07.264Z,14.40
2019-05-10T17:09:37.352Z,14.40
2019-05-10T17:12:06.678Z,14.50
2019-05-10T17:14:36.279Z,14.40
2019-05-10T17:17:05.595Z,14.30
2019-05-10T17:19:36.162Z,14.30
2019-05-10T17:22:06.299Z,14.20
2019-05-10T17:24:35.635Z,14.10
2019-05-10T17:27:04.991Z,14.10
2019-05-10T17:29:34.360Z,14.10
2019-05-10T17:32:03.870Z,14.10
2019-05-10T17:34:33.165Z,14.00
2019-05-10T17:37:02.488Z,13.90
2019-05-10T17:39:34.552Z,13.80
2019-05-10T17:42:05.854Z,13.80
2019-05-10T17:44:36.996Z,13.70
2019-05-10T17:47:06.609Z,13.60
2019-05-10T17:49:35.905Z,13.50
2019-05-10T17:52:05.581Z,13.50
2019-05-10T17:54:39.147Z,13.40
2019-05-10T17:57:10.584Z,13.30
2019-05-10T17:59:37.722Z,13.30
2019-05-10T18:02:07.150Z,13.30
2019-05-10T18:04:36.948Z,13.20
2019-05-10T18:07:09.863Z,13.20
2019-05-10T18:09:39.100Z,13.10
2019-05-10T18:12:08.719Z,13.00
2019-05-10T18:14:38.004Z,13.00
2019-05-10T18:17:10.090Z,12.90
2019-05-10T18:19:39.436Z,12.80
2019-05-10T18:22:08.721Z,12.80
2019-05-10T18:24:42.200Z,12.70
2019-05-10T18:27:11.099Z,12.60
2019-05-10T18:29:40.933Z,12.50
2019-05-10T18:32:11.114Z,12.50
2019-05-10T18:34:40.890Z,12.30
2019-05-10T18:37:10.584Z,12.20
2019-05-10T18:39:39.930Z,12.10
2019-05-10T18:42:09.643Z,11.90
2019-05-10T18:44:39.339Z,11.80
2019-05-10T18:47:08.954Z,11.80
2019-05-10T18:49:38.391Z,11.70
2019-05-10T18:52:07.881Z,11.70
2019-05-10T18:54:38.598Z,11.70
2019-05-10T18:57:11.588Z,11.70
2019-05-10T18:59:45.432Z,11.70
2019-05-10T19:02:11.869Z,11.60
2019-05-10T19:04:45.755Z,11.60
2019-05-10T19:07:18.203Z,11.40
2019-05-10T19:09:48.587Z,11.40
2019-05-10T19:12:19.191Z,11.30
2019-05-10T19:14:49.359Z,11.20
2019-05-10T19:17:20.321Z,11.20
2019-05-10T19:19:49.829Z,11.20
2019-05-10T19:22:19.434Z,11.10
2019-05-10T19:24:48.876Z,11.00
2019-05-10T19:27:18.598Z,11.00
2019-05-10T19:29:48.137Z,11.00
2019-05-10T19:32:18.776Z,11.00
2019-05-10T19:34:57.292Z,11.00
2019-05-10T19:37:31.489Z,10.90
2019-05-10T19:39:53.675Z,10.90
2019-05-10T19:42:23.040Z,10.90
2019-05-10T19:44:52.611Z,10.80
2019-05-10T19:47:22.280Z,10.80
2019-05-10T19:49:53.363Z,10.80
2019-05-10T19:52:26.037Z,10.80
2019-05-10T19:54:53.947Z,10.70
2019-05-10T19:57:23.647Z,10.70
2019-05-10T19:59:53.204Z,10.60
2019-05-10T20:02:22.492Z,10.60
2019-05-10T20:04:51.717Z,10.60
2019-05-10T20:07:20.939Z,10.50
2019-05-10T20:09:50.244Z,10.50
2019-05-10T20:12:19.406Z,10.40
2019-05-10T20:14:48.762Z,10.30
2019-05-10T20:17:20.465Z,10.30
2019-05-10T20:19:50.087Z,10.20
2019-05-10T20:22:19.413Z,10.20
2019-05-10T20:24:48.644Z,10.10
2019-05-10T20:27:17.925Z,10.10
2019-05-10T20:29:47.527Z,10.00
2019-05-10T20:32:16.770Z,9.90
2019-05-10T20:34:45.973Z,9.90
2019-05-10T20:37:15.202Z,9.80
2019-05-10T20:39:44.492Z,9.80
2019-05-10T20:42:14.196Z,9.80
2019-05-10T20:44:43.629Z,9.80
2019-05-10T20:47:12.905Z,9.80
2019-05-10T20:49:42.188Z,9.70
2019-05-10T20:52:13.851Z,9.80
2019-05-10T20:54:43.386Z,9.80
2019-05-10T20:57:12.666Z,9.80
2019-05-10T20:59:42.195Z,9.80
2019-05-10T21:02:13.231Z,9.80
2019-05-10T21:04:42.519Z,9.80
2019-05-10T21:07:11.858Z,9.80
2019-05-10T21:09:41.280Z,9.80
2019-05-10T21:12:10.486Z,9.80
2019-05-10T21:14:39.770Z,9.80
2019-05-10T21:17:09.044Z,9.80
2019-05-10T21:19:38.212Z,9.80
2019-05-10T21:22:07.487Z,9.80
2019-05-10T21:24:36.745Z,9.90
2019-05-10T21:27:06.268Z,9.90
2019-05-10T21:29:35.722Z,9.90
2019-05-10T21:32:05.906Z,10.00
2019-05-10T21:34:35.842Z,10.00
2019-05-10T21:37:05.237Z,10.10
2019-05-10T21:39:34.642Z,10.10
2019-05-10T21:42:04.922Z,10.10
2019-05-10T21:44:34.132Z,10.20
2019-05-10T21:47:03.492Z,10.20
2019-05-10T21:49:53.258Z,10.20
2019-05-10T21:52:22.637Z,10.20
2019-05-10T21:54:53.350Z,10.20
2019-05-10T21:57:22.605Z,10.20
2019-05-10T21:59:53.054Z,10.30
